sensor_id;sensor_type;location;lat;lon;timestamp;temperature;humidity
6824;DHT22;58633;49.470;11.004;2023-09-18T00:00:25;22.40;67.60
6824;DHT22;58633;49.470;11.004;2023-09-18T00:02:51;22.40;67.60
6824;DHT22;58633;49.470;11.004;2023-09-18T00:05:16;22.30;67.70
6824;DHT22;58633;49.470;11.004;2023-09-18T00:07:42;22.30;68.00
6824;DHT22;58633;49.470;11.004;2023-09-18T00:10:10;22.20;68.00
6824;DHT22;58633;49.470;11.004;2023-09-18T00:12:35;22.20;68.10
6824;DHT22;58633;49.470;11.004;2023-09-18T00:15:01;22.20;68.10
6824;DHT22;58633;49.470;11.004;2023-09-18T00:17:26;22.20;68.00
6824;DHT22;58633;49.470;11.004;2023-09-18T00:19:52;22.10;68.10
6824;DHT22;58633;49.470;11.004;2023-09-18T00:22:18;22.10;68.30
6824;DHT22;58633;49.470;11.004;2023-09-18T00:24:44;22.10;68.30
6824;DHT22;58633;49.470;11.004;2023-09-18T00:27:10;22.10;68.30
6824;DHT22;58633;49.470;11.004;2023-09-18T00:29:36;22.00;68.40
6824;DHT22;58633;49.470;11.004;2023-09-18T00:32:02;22.00;68.60
6824;DHT22;58633;49.470;11.004;2023-09-18T00:34:29;22.00;68.70
6824;DHT22;58633;49.470;11.004;2023-09-18T00:36:54;21.90;68.70
6824;DHT22;58633;49.470;11.004;2023-09-18T00:39:20;21.80;68.80
6824;DHT22;58633;49.470;11.004;2023-09-18T00:41:45;21.80;69.10
6824;DHT22;58633;49.470;11.004;2023-09-18T00:44:14;21.70;69.00
6824;DHT22;58633;49.470;11.004;2023-09-18T00:46:40;21.90;69.50
6824;DHT22;58633;49.470;11.004;2023-09-18T00:49:06;21.70;69.30
6824;DHT22;58633;49.470;11.004;2023-09-18T00:51:32;21.60;69.40
6824;DHT22;58633;49.470;11.004;2023-09-18T00:53:58;21.60;69.60
6824;DHT22;58633;49.470;11.004;2023-09-18T00:56:24;21.60;69.50
6824;DHT22;58633;49.470;11.004;2023-09-18T00:58:50;21.60;69.70
6824;DHT22;58633;49.470;11.004;2023-09-18T01:01:19;21.50;69.70
6824;DHT22;58633;49.470;11.004;2023-09-18T01:03:49;21.60;69.70
6824;DHT22;58633;49.470;11.004;2023-09-18T01:06:16;21.50;69.80
6824;DHT22;58633;49.470;11.004;2023-09-18T01:08:42;21.50;69.80
6824;DHT22;58633;49.470;11.004;2023-09-18T01:11:19;21.50;69.60
6824;DHT22;58633;49.470;11.004;2023-09-18T01:14:00;21.50;69.80
6824;DHT22;58633;49.470;11.004;2023-09-18T01:16:34;21.50;70.40
6824;DHT22;58633;49.470;11.004;2023-09-18T01:19:02;21.50;69.90
6824;DHT22;58633;49.470;11.004;2023-09-18T01:21:28;21.30;69.90
6824;DHT22;58633;49.470;11.004;2023-09-18T01:23:54;21.30;70.30
6824;DHT22;58633;49.470;11.004;2023-09-18T01:26:20;21.30;70.30
6824;DHT22;58633;49.470;11.004;2023-09-18T01:28:45;21.30;70.20
6824;DHT22;58633;49.470;11.004;2023-09-18T01:31:11;21.30;70.10
6824;DHT22;58633;49.470;11.004;2023-09-18T01:33:38;21.40;70.10
6824;DHT22;58633;49.470;11.004;2023-09-18T01:36:07;21.40;70.10
6824;DHT22;58633;49.470;11.004;2023-09-18T01:38:33;21.40;70.00
6824;DHT22;58633;49.470;11.004;2023-09-18T01:40:59;21.40;70.00
6824;DHT22;58633;49.470;11.004;2023-09-18T01:43:26;21.40;70.00
6824;DHT22;58633;49.470;11.004;2023-09-18T01:45:51;21.30;70.00
6824;DHT22;58633;49.470;11.004;2023-09-18T01:48:18;21.30;69.80
6824;DHT22;58633;49.470;11.004;2023-09-18T01:50:44;21.30;70.00
6824;DHT22;58633;49.470;11.004;2023-09-18T01:53:09;21.20;69.90
6824;DHT22;58633;49.470;11.004;2023-09-18T01:55:35;21.30;70.10
6824;DHT22;58633;49.470;11.004;2023-09-18T01:58:01;21.20;70.00
6824;DHT22;58633;49.470;11.004;2023-09-18T02:00:26;21.20;69.80
6824;DHT22;58633;49.470;11.004;2023-09-18T02:02:51;21.20;69.60
6824;DHT22;58633;49.470;11.004;2023-09-18T02:05:17;21.30;69.50
6824;DHT22;58633;49.470;11.004;2023-09-18T02:07:42;21.20;69.80
6824;DHT22;58633;49.470;11.004;2023-09-18T02:10:08;21.30;69.10
6824;DHT22;58633;49.470;11.004;2023-09-18T02:12:34;21.20;69.10
6824;DHT22;58633;49.470;11.004;2023-09-18T02:14:59;21.10;69.00
6824;DHT22;58633;49.470;11.004;2023-09-18T02:17:29;21.00;69.00
6824;DHT22;58633;49.470;11.004;2023-09-18T02:19:55;21.00;69.10
6824;DHT22;58633;49.470;11.004;2023-09-18T02:22:20;21.10;69.10
6824;DHT22;58633;49.470;11.004;2023-09-18T02:24:46;21.00;69.00
6824;DHT22;58633;49.470;11.004;2023-09-18T02:27:12;21.10;69.00
6824;DHT22;58633;49.470;11.004;2023-09-18T02:29:37;21.00;68.80
6824;DHT22;58633;49.470;11.004;2023-09-18T02:32:03;21.00;68.90
6824;DHT22;58633;49.470;11.004;2023-09-18T02:34:28;21.00;69.10
6824;DHT22;58633;49.470;11.004;2023-09-18T02:36:54;21.00;69.10
6824;DHT22;58633;49.470;11.004;2023-09-18T02:39:19;21.00;69.10
6824;DHT22;58633;49.470;11.004;2023-09-18T02:41:45;21.00;69.10
6824;DHT22;58633;49.470;11.004;2023-09-18T02:44:11;20.90;69.20
6824;DHT22;58633;49.470;11.004;2023-09-18T02:46:37;20.80;69.30
6824;DHT22;58633;49.470;11.004;2023-09-18T02:49:03;20.80;69.40
6824;DHT22;58633;49.470;11.004;2023-09-18T02:51:29;20.80;69.50
6824;DHT22;58633;49.470;11.004;2023-09-18T02:53:57;20.80;69.60
6824;DHT22;58633;49.470;11.004;2023-09-18T02:56:22;20.80;69.60
6824;DHT22;58633;49.470;11.004;2023-09-18T02:58:48;20.80;69.60
6824;DHT22;58633;49.470;11.004;2023-09-18T03:01:13;20.70;69.60
6824;DHT22;58633;49.470;11.004;2023-09-18T03:03:39;20.70;69.60
6824;DHT22;58633;49.470;11.004;2023-09-18T03:06:07;20.70;69.70
6824;DHT22;58633;49.470;11.004;2023-09-18T03:08:33;20.60;69.80
6824;DHT22;58633;49.470;11.004;2023-09-18T03:10:58;20.60;70.00
6824;DHT22;58633;49.470;11.004;2023-09-18T03:13:27;20.50;70.10
6824;DHT22;58633;49.470;11.004;2023-09-18T03:15:53;20.50;70.20
6824;DHT22;58633;49.470;11.004;2023-09-18T03:18:18;20.50;70.10
6824;DHT22;58633;49.470;11.004;2023-09-18T03:20:44;20.50;70.20
6824;DHT22;58633;49.470;11.004;2023-09-18T03:23:09;20.50;70.40
6824;DHT22;58633;49.470;11.004;2023-09-18T03:25:36;20.40;70.20
6824;DHT22;58633;49.470;11.004;2023-09-18T03:28:02;20.40;70.20
6824;DHT22;58633;49.470;11.004;2023-09-18T03:30:28;20.40;70.20
6824;DHT22;58633;49.470;11.004;2023-09-18T03:32:54;20.30;70.30
6824;DHT22;58633;49.470;11.004;2023-09-18T03:35:20;20.40;70.50
6824;DHT22;58633;49.470;11.004;2023-09-18T03:37:49;20.30;71.30
6824;DHT22;58633;49.470;11.004;2023-09-18T03:40:16;20.30;70.90
6824;DHT22;58633;49.470;11.004;2023-09-18T03:42:42;20.30;71.70
6824;DHT22;58633;49.470;11.004;2023-09-18T03:45:08;20.40;71.00
6824;DHT22;58633;49.470;11.004;2023-09-18T03:47:35;20.40;70.80
6824;DHT22;58633;49.470;11.004;2023-09-18T03:50:05;20.40;71.00
6824;DHT22;58633;49.470;11.004;2023-09-18T03:52:31;20.40;71.10
6824;DHT22;58633;49.470;11.004;2023-09-18T03:54:56;20.40;71.30
6824;DHT22;58633;49.470;11.004;2023-09-18T03:57:22;20.30;71.20
6824;DHT22;58633;49.470;11.004;2023-09-18T03:59:47;20.30;71.30
6824;DHT22;58633;49.470;11.004;2023-09-18T04:02:13;20.20;71.30
6824;DHT22;58633;49.470;11.004;2023-09-18T04:04:38;20.30;71.50
6824;DHT22;58633;49.470;11.004;2023-09-18T04:07:06;20.30;71.50
6824;DHT22;58633;49.470;11.004;2023-09-18T04:09:32;20.30;71.60
6824;DHT22;58633;49.470;11.004;2023-09-18T04:11:57;20.20;71.60
6824;DHT22;58633;49.470;11.004;2023-09-18T04:14:23;20.30;71.60
6824;DHT22;58633;49.470;11.004;2023-09-18T04:16:49;20.20;71.50
6824;DHT22;58633;49.470;11.004;2023-09-18T04:19:14;20.20;71.60
6824;DHT22;58633;49.470;11.004;2023-09-18T04:21:40;20.20;71.60
6824;DHT22;58633;49.470;11.004;2023-09-18T04:24:05;20.30;71.70
6824;DHT22;58633;49.470;11.004;2023-09-18T04:26:31;20.20;71.80
6824;DHT22;58633;49.470;11.004;2023-09-18T04:28:58;20.10;72.00
6824;DHT22;58633;49.470;11.004;2023-09-18T04:31:24;20.10;72.30
6824;DHT22;58633;49.470;11.004;2023-09-18T04:33:49;20.10;72.60
6824;DHT22;58633;49.470;11.004;2023-09-18T04:36:15;20.10;72.80
6824;DHT22;58633;49.470;11.004;2023-09-18T04:38:41;20.20;72.80
6824;DHT22;58633;49.470;11.004;2023-09-18T04:41:06;20.20;72.70
6824;DHT22;58633;49.470;11.004;2023-09-18T04:43:39;20.20;72.80
6824;DHT22;58633;49.470;11.004;2023-09-18T04:46:05;20.20;72.60
6824;DHT22;58633;49.470;11.004;2023-09-18T04:48:31;20.20;73.30
6824;DHT22;58633;49.470;11.004;2023-09-18T04:50:57;20.20;72.80
6824;DHT22;58633;49.470;11.004;2023-09-18T04:53:23;20.30;72.90
6824;DHT22;58633;49.470;11.004;2023-09-18T04:55:48;20.30;72.80
6824;DHT22;58633;49.470;11.004;2023-09-18T04:58:16;20.20;72.70
6824;DHT22;58633;49.470;11.004;2023-09-18T05:00:41;20.20;73.00
6824;DHT22;58633;49.470;11.004;2023-09-18T05:03:07;20.40;73.30
6824;DHT22;58633;49.470;11.004;2023-09-18T05:05:34;20.20;73.20
6824;DHT22;58633;49.470;11.004;2023-09-18T05:08:01;20.10;73.40
6824;DHT22;58633;49.470;11.004;2023-09-18T05:10:28;20.10;73.70
6824;DHT22;58633;49.470;11.004;2023-09-18T05:12:54;20.10;73.80
6824;DHT22;58633;49.470;11.004;2023-09-18T05:15:24;20.10;73.90
6824;DHT22;58633;49.470;11.004;2023-09-18T05:17:51;20.10;74.10
6824;DHT22;58633;49.470;11.004;2023-09-18T05:20:21;20.10;74.00
6824;DHT22;58633;49.470;11.004;2023-09-18T05:22:50;20.10;74.00
6824;DHT22;58633;49.470;11.004;2023-09-18T05:25:16;20.00;74.20
6824;DHT22;58633;49.470;11.004;2023-09-18T05:27:42;20.10;74.40
6824;DHT22;58633;49.470;11.004;2023-09-18T05:32:38;20.00;74.60
6824;DHT22;58633;49.470;11.004;2023-09-18T05:35:03;20.00;74.90
6824;DHT22;58633;49.470;11.004;2023-09-18T05:37:32;19.90;75.20
6824;DHT22;58633;49.470;11.004;2023-09-18T05:39:57;19.80;75.50
6824;DHT22;58633;49.470;11.004;2023-09-18T05:42:23;19.80;76.00
6824;DHT22;58633;49.470;11.004;2023-09-18T05:44:49;19.80;76.40
6824;DHT22;58633;49.470;11.004;2023-09-18T05:47:14;19.80;76.40
6824;DHT22;58633;49.470;11.004;2023-09-18T05:49:40;19.90;76.30
6824;DHT22;58633;49.470;11.004;2023-09-18T05:52:05;19.80;76.00
6824;DHT22;58633;49.470;11.004;2023-09-18T05:54:31;19.90;76.20
6824;DHT22;58633;49.470;11.004;2023-09-18T05:56:56;19.90;76.20
6824;DHT22;58633;49.470;11.004;2023-09-18T05:59:22;20.10;76.40
6824;DHT22;58633;49.470;11.004;2023-09-18T06:01:47;20.00;76.60
6824;DHT22;58633;49.470;11.004;2023-09-18T06:04:14;20.10;76.60
6824;DHT22;58633;49.470;11.004;2023-09-18T06:06:40;20.10;76.40
6824;DHT22;58633;49.470;11.004;2023-09-18T06:09:05;20.10;76.30
6824;DHT22;58633;49.470;11.004;2023-09-18T06:11:31;20.10;76.10
6824;DHT22;58633;49.470;11.004;2023-09-18T06:13:57;20.20;76.30
6824;DHT22;58633;49.470;11.004;2023-09-18T06:16:22;20.20;76.20
6824;DHT22;58633;49.470;11.004;2023-09-18T06:18:48;20.20;76.40
6824;DHT22;58633;49.470;11.004;2023-09-18T06:21:13;20.20;76.40
6824;DHT22;58633;49.470;11.004;2023-09-18T06:23:39;20.20;76.40
6824;DHT22;58633;49.470;11.004;2023-09-18T06:26:04;20.10;76.60
6824;DHT22;58633;49.470;11.004;2023-09-18T06:28:30;20.20;76.80
6824;DHT22;58633;49.470;11.004;2023-09-18T06:30:55;20.30;76.90
6824;DHT22;58633;49.470;11.004;2023-09-18T06:33:22;20.40;77.00
6824;DHT22;58633;49.470;11.004;2023-09-18T06:35:47;20.40;76.70
6824;DHT22;58633;49.470;11.004;2023-09-18T06:38:13;20.40;76.50
6824;DHT22;58633;49.470;11.004;2023-09-18T06:40:40;20.50;76.50
6824;DHT22;58633;49.470;11.004;2023-09-18T06:43:06;20.60;76.50
6824;DHT22;58633;49.470;11.004;2023-09-18T06:45:32;20.60;76.30
6824;DHT22;58633;49.470;11.004;2023-09-18T06:47:58;20.60;76.30
6824;DHT22;58633;49.470;11.004;2023-09-18T06:50:25;20.60;76.30
6824;DHT22;58633;49.470;11.004;2023-09-18T06:52:51;20.60;76.10
6824;DHT22;58633;49.470;11.004;2023-09-18T06:55:16;20.60;76.00
6824;DHT22;58633;49.470;11.004;2023-09-18T06:57:42;20.70;75.90
6824;DHT22;58633;49.470;11.004;2023-09-18T07:00:08;20.70;75.70
6824;DHT22;58633;49.470;11.004;2023-09-18T07:02:34;20.80;75.70
6824;DHT22;58633;49.470;11.004;2023-09-18T07:04:59;20.80;75.50
6824;DHT22;58633;49.470;11.004;2023-09-18T07:07:25;20.80;75.50
6824;DHT22;58633;49.470;11.004;2023-09-18T07:09:52;20.90;75.70
6824;DHT22;58633;49.470;11.004;2023-09-18T07:12:17;20.90;75.40
6824;DHT22;58633;49.470;11.004;2023-09-18T07:14:46;21.00;75.30
6824;DHT22;58633;49.470;11.004;2023-09-18T07:17:12;21.00;75.20
6824;DHT22;58633;49.470;11.004;2023-09-18T07:19:38;21.10;74.80
6824;DHT22;58633;49.470;11.004;2023-09-18T07:22:03;21.20;74.60
6824;DHT22;58633;49.470;11.004;2023-09-18T07:24:29;21.30;74.40
6824;DHT22;58633;49.470;11.004;2023-09-18T07:26:54;21.40;74.30
6824;DHT22;58633;49.470;11.004;2023-09-18T07:29:20;21.60;74.10
6824;DHT22;58633;49.470;11.004;2023-09-18T07:31:46;21.60;73.70
6824;DHT22;58633;49.470;11.004;2023-09-18T07:34:13;21.70;73.50
6824;DHT22;58633;49.470;11.004;2023-09-18T07:36:39;21.80;73.30
6824;DHT22;58633;49.470;11.004;2023-09-18T07:39:05;21.80;73.00
6824;DHT22;58633;49.470;11.004;2023-09-18T07:41:34;21.90;72.70
6824;DHT22;58633;49.470;11.004;2023-09-18T07:43:59;21.80;72.50
6824;DHT22;58633;49.470;11.004;2023-09-18T07:46:25;21.90;72.40
6824;DHT22;58633;49.470;11.004;2023-09-18T07:48:51;21.80;72.40
6824;DHT22;58633;49.470;11.004;2023-09-18T07:51:16;21.90;72.30
6824;DHT22;58633;49.470;11.004;2023-09-18T07:53:42;21.90;72.20
6824;DHT22;58633;49.470;11.004;2023-09-18T07:56:08;22.00;72.10
6824;DHT22;58633;49.470;11.004;2023-09-18T07:58:34;22.00;71.90
6824;DHT22;58633;49.470;11.004;2023-09-18T08:01:03;22.10;71.90
6824;DHT22;58633;49.470;11.004;2023-09-18T08:03:32;22.20;72.50
6824;DHT22;58633;49.470;11.004;2023-09-18T08:05:57;22.20;71.60
6824;DHT22;58633;49.470;11.004;2023-09-18T08:08:23;22.30;71.50
6824;DHT22;58633;49.470;11.004;2023-09-18T08:10:50;22.40;71.40
6824;DHT22;58633;49.470;11.004;2023-09-18T08:13:16;22.40;71.20
6824;DHT22;58633;49.470;11.004;2023-09-18T08:15:42;22.60;71.30
6824;DHT22;58633;49.470;11.004;2023-09-18T08:18:09;22.70;70.90
6824;DHT22;58633;49.470;11.004;2023-09-18T08:20:36;22.90;70.20
6824;DHT22;58633;49.470;11.004;2023-09-18T08:23:03;23.00;69.80
6824;DHT22;58633;49.470;11.004;2023-09-18T08:25:30;23.20;69.40
6824;DHT22;58633;49.470;11.004;2023-09-18T08:27:56;23.40;69.10
6824;DHT22;58633;49.470;11.004;2023-09-18T08:30:21;23.50;68.90
6824;DHT22;58633;49.470;11.004;2023-09-18T08:32:47;23.50;68.10
6824;DHT22;58633;49.470;11.004;2023-09-18T08:35:13;23.50;67.90
6824;DHT22;58633;49.470;11.004;2023-09-18T08:37:42;23.60;67.80
6824;DHT22;58633;49.470;11.004;2023-09-18T08:40:12;23.70;67.50
6824;DHT22;58633;49.470;11.004;2023-09-18T08:42:46;23.70;67.00
6824;DHT22;58633;49.470;11.004;2023-09-18T08:45:22;23.80;67.10
6824;DHT22;58633;49.470;11.004;2023-09-18T08:47:48;24.00;66.60
6824;DHT22;58633;49.470;11.004;2023-09-18T08:50:15;24.10;66.40
6824;DHT22;58633;49.470;11.004;2023-09-18T08:52:41;24.20;66.30
6824;DHT22;58633;49.470;11.004;2023-09-18T08:55:08;24.50;66.20
6824;DHT22;58633;49.470;11.004;2023-09-18T08:57:34;24.80;65.40
6824;DHT22;58633;49.470;11.004;2023-09-18T09:00:02;25.10;64.80
6824;DHT22;58633;49.470;11.004;2023-09-18T09:02:33;25.10;63.90
6824;DHT22;58633;49.470;11.004;2023-09-18T09:04:58;25.20;63.80
6824;DHT22;58633;49.470;11.004;2023-09-18T09:07:25;25.30;63.30
6824;DHT22;58633;49.470;11.004;2023-09-18T09:09:50;25.30;62.80
6824;DHT22;58633;49.470;11.004;2023-09-18T09:12:16;25.30;62.70
6824;DHT22;58633;49.470;11.004;2023-09-18T09:15:02;25.20;62.80
6824;DHT22;58633;49.470;11.004;2023-09-18T09:17:29;25.20;62.30
6824;DHT22;58633;49.470;11.004;2023-09-18T09:20:11;25.20;61.80
6824;DHT22;58633;49.470;11.004;2023-09-18T09:22:38;25.20;60.90
6824;DHT22;58633;49.470;11.004;2023-09-18T09:25:21;25.30;61.20
6824;DHT22;58633;49.470;11.004;2023-09-18T09:27:47;25.30;60.90
6824;DHT22;58633;49.470;11.004;2023-09-18T09:30:24;25.40;61.10
6824;DHT22;58633;49.470;11.004;2023-09-18T09:32:51;25.70;60.70
6824;DHT22;58633;49.470;11.004;2023-09-18T09:35:22;25.90;60.10
6824;DHT22;58633;49.470;11.004;2023-09-18T09:37:50;26.10;59.40
6824;DHT22;58633;49.470;11.004;2023-09-18T09:40:19;26.30;59.00
6824;DHT22;58633;49.470;11.004;2023-09-18T09:42:45;26.40;58.10
6824;DHT22;58633;49.470;11.004;2023-09-18T09:45:13;26.40;57.90
6824;DHT22;58633;49.470;11.004;2023-09-18T09:47:40;26.50;58.40
6824;DHT22;58633;49.470;11.004;2023-09-18T09:50:10;26.70;57.60
6824;DHT22;58633;49.470;11.004;2023-09-18T09:52:41;26.80;56.50
6824;DHT22;58633;49.470;11.004;2023-09-18T09:58:04;26.80;56.00
6824;DHT22;58633;49.470;11.004;2023-09-18T10:00:43;26.90;55.40
6824;DHT22;58633;49.470;11.004;2023-09-18T10:03:12;26.90;55.20
6824;DHT22;58633;49.470;11.004;2023-09-18T10:05:40;27.10;54.90
6824;DHT22;58633;49.470;11.004;2023-09-18T10:08:26;27.20;54.30
6824;DHT22;58633;49.470;11.004;2023-09-18T10:10:55;27.20;54.00
6824;DHT22;58633;49.470;11.004;2023-09-18T10:13:27;27.20;53.90
6824;DHT22;58633;49.470;11.004;2023-09-18T10:15:56;27.10;53.90
6824;DHT22;58633;49.470;11.004;2023-09-18T10:21:56;27.10;53.30
6824;DHT22;58633;49.470;11.004;2023-09-18T10:24:28;27.10;53.80
6824;DHT22;58633;49.470;11.004;2023-09-18T10:27:01;26.90;53.40
6824;DHT22;58633;49.470;11.004;2023-09-18T10:29:30;26.90;53.70
6824;DHT22;58633;49.470;11.004;2023-09-18T10:31:56;26.90;53.80
6824;DHT22;58633;49.470;11.004;2023-09-18T10:34:24;26.90;53.90
6824;DHT22;58633;49.470;11.004;2023-09-18T10:36:53;26.90;53.80
6824;DHT22;58633;49.470;11.004;2023-09-18T10:39:20;26.90;53.70
6824;DHT22;58633;49.470;11.004;2023-09-18T10:41:51;26.90;53.80
6824;DHT22;58633;49.470;11.004;2023-09-18T10:44:18;26.90;53.90
6824;DHT22;58633;49.470;11.004;2023-09-18T10:46:48;26.80;53.90
6824;DHT22;58633;49.470;11.004;2023-09-18T10:49:15;26.80;54.20
6824;DHT22;58633;49.470;11.004;2023-09-18T10:51:41;26.80;54.40
6824;DHT22;58633;49.470;11.004;2023-09-18T10:54:14;26.80;54.20
6824;DHT22;58633;49.470;11.004;2023-09-18T10:56:41;26.70;54.00
6824;DHT22;58633;49.470;11.004;2023-09-18T10:59:08;26.50;53.90
6824;DHT22;58633;49.470;11.004;2023-09-18T11:01:35;26.40;54.00
6824;DHT22;58633;49.470;11.004;2023-09-18T11:04:04;26.40;53.70
6824;DHT22;58633;49.470;11.004;2023-09-18T11:09:21;26.30;53.40
6824;DHT22;58633;49.470;11.004;2023-09-18T11:11:52;26.20;52.90
6824;DHT22;58633;49.470;11.004;2023-09-18T11:14:22;26.10;52.90
6824;DHT22;58633;49.470;11.004;2023-09-18T11:16:49;26.10;52.90
6824;DHT22;58633;49.470;11.004;2023-09-18T11:19:18;26.00;53.20
6824;DHT22;58633;49.470;11.004;2023-09-18T11:21:45;26.00;53.20
6824;DHT22;58633;49.470;11.004;2023-09-18T11:24:21;25.80;53.50
6824;DHT22;58633;49.470;11.004;2023-09-18T11:26:50;25.80;53.60
6824;DHT22;58633;49.470;11.004;2023-09-18T11:29:21;25.70;53.60
6824;DHT22;58633;49.470;11.004;2023-09-18T11:31:51;25.70;53.70
6824;DHT22;58633;49.470;11.004;2023-09-18T11:34:23;25.60;52.70
6824;DHT22;58633;49.470;11.004;2023-09-18T11:36:50;25.50;52.70
6824;DHT22;58633;49.470;11.004;2023-09-18T11:39:39;25.40;52.70
6824;DHT22;58633;49.470;11.004;2023-09-18T11:42:13;25.40;52.90
6824;DHT22;58633;49.470;11.004;2023-09-18T11:44:40;25.40;52.90
6824;DHT22;58633;49.470;11.004;2023-09-18T11:47:13;25.30;52.50
6824;DHT22;58633;49.470;11.004;2023-09-18T11:49:52;25.20;52.90
6824;DHT22;58633;49.470;11.004;2023-09-18T11:52:24;25.20;53.00
6824;DHT22;58633;49.470;11.004;2023-09-18T11:54:50;25.20;53.10
6824;DHT22;58633;49.470;11.004;2023-09-18T11:57:17;25.10;53.10
6824;DHT22;58633;49.470;11.004;2023-09-18T11:59:43;25.10;53.20
6824;DHT22;58633;49.470;11.004;2023-09-18T12:02:28;25.10;53.40
6824;DHT22;58633;49.470;11.004;2023-09-18T12:04:54;25.10;53.50
6824;DHT22;58633;49.470;11.004;2023-09-18T12:07:20;25.00;54.00
6824;DHT22;58633;49.470;11.004;2023-09-18T12:09:45;24.90;54.90
6824;DHT22;58633;49.470;11.004;2023-09-18T12:12:11;24.80;56.00
6824;DHT22;58633;49.470;11.004;2023-09-18T12:14:40;24.60;56.80
6824;DHT22;58633;49.470;11.004;2023-09-18T12:17:07;24.60;57.70
6824;DHT22;58633;49.470;11.004;2023-09-18T12:19:33;24.50;58.60
6824;DHT22;58633;49.470;11.004;2023-09-18T12:22:00;24.30;59.40
6824;DHT22;58633;49.470;11.004;2023-09-18T12:24:27;24.20;59.90
6824;DHT22;58633;49.470;11.004;2023-09-18T12:26:54;24.10;60.50
6824;DHT22;58633;49.470;11.004;2023-09-18T12:29:20;23.90;61.50
6824;DHT22;58633;49.470;11.004;2023-09-18T12:31:46;23.60;62.60
6824;DHT22;58633;49.470;11.004;2023-09-18T12:34:19;23.40;63.80
6824;DHT22;58633;49.470;11.004;2023-09-18T12:36:47;23.30;65.10
6824;DHT22;58633;49.470;11.004;2023-09-18T12:39:13;22.90;65.80
6824;DHT22;58633;49.470;11.004;2023-09-18T12:41:45;22.70;67.00
6824;DHT22;58633;49.470;11.004;2023-09-18T12:44:11;22.50;67.80
6824;DHT22;58633;49.470;11.004;2023-09-18T12:46:38;22.30;68.60
6824;DHT22;58633;49.470;11.004;2023-09-18T12:51:42;22.10;71.10
6824;DHT22;58633;49.470;11.004;2023-09-18T12:54:07;22.10;70.50
6824;DHT22;58633;49.470;11.004;2023-09-18T12:56:33;22.00;70.60
6824;DHT22;58633;49.470;11.004;2023-09-18T12:58:58;22.00;70.70
6824;DHT22;58633;49.470;11.004;2023-09-18T13:01:24;21.90;70.70
6824;DHT22;58633;49.470;11.004;2023-09-18T13:03:53;21.90;71.20
6824;DHT22;58633;49.470;11.004;2023-09-18T13:06:19;21.90;71.80
6824;DHT22;58633;49.470;11.004;2023-09-18T13:08:46;21.90;71.90
6824;DHT22;58633;49.470;11.004;2023-09-18T13:11:11;21.60;72.50
6824;DHT22;58633;49.470;11.004;2023-09-18T13:13:39;21.40;73.40
6824;DHT22;58633;49.470;11.004;2023-09-18T13:16:06;21.30;75.10
6824;DHT22;58633;49.470;11.004;2023-09-18T13:18:34;21.20;76.30
6824;DHT22;58633;49.470;11.004;2023-09-18T13:21:00;21.10;77.00
6824;DHT22;58633;49.470;11.004;2023-09-18T13:23:32;21.10;77.30
6824;DHT22;58633;49.470;11.004;2023-09-18T13:26:05;21.00;77.60
6824;DHT22;58633;49.470;11.004;2023-09-18T13:28:31;21.00;78.40
6824;DHT22;58633;49.470;11.004;2023-09-18T13:30:58;20.80;79.50
6824;DHT22;58633;49.470;11.004;2023-09-18T13:33:25;20.60;82.00
6824;DHT22;58633;49.470;11.004;2023-09-18T13:35:51;20.30;86.40
6824;DHT22;58633;49.470;11.004;2023-09-18T13:38:18;20.10;91.60
6824;DHT22;58633;49.470;11.004;2023-09-18T13:40:46;19.90;94.60
6824;DHT22;58633;49.470;11.004;2023-09-18T13:43:13;19.80;95.40
6824;DHT22;58633;49.470;11.004;2023-09-18T13:45:41;19.60;97.90
6824;DHT22;58633;49.470;11.004;2023-09-18T13:48:07;19.50;99.90
6824;DHT22;58633;49.470;11.004;2023-09-18T13:50:34;19.40;99.90
6824;DHT22;58633;49.470;11.004;2023-09-18T13:53:00;19.40;99.90
6824;DHT22;58633;49.470;11.004;2023-09-18T13:55:26;19.40;99.90
6824;DHT22;58633;49.470;11.004;2023-09-18T13:57:51;19.40;99.90
6824;DHT22;58633;49.470;11.004;2023-09-18T14:00:17;19.40;99.90
6824;DHT22;58633;49.470;11.004;2023-09-18T14:02:43;19.30;99.90
6824;DHT22;58633;49.470;11.004;2023-09-18T14:05:09;19.30;99.90
6824;DHT22;58633;49.470;11.004;2023-09-18T14:07:36;19.20;99.90
6824;DHT22;58633;49.470;11.004;2023-09-18T14:10:05;19.30;99.90
6824;DHT22;58633;49.470;11.004;2023-09-18T14:12:32;19.30;99.90
6824;DHT22;58633;49.470;11.004;2023-09-18T14:14:58;19.30;99.90
6824;DHT22;58633;49.470;11.004;2023-09-18T14:17:23;19.30;99.90
6824;DHT22;58633;49.470;11.004;2023-09-18T14:19:49;19.40;99.90
6824;DHT22;58633;49.470;11.004;2023-09-18T14:22:14;19.40;99.90
6824;DHT22;58633;49.470;11.004;2023-09-18T14:24:40;19.40;99.90
6824;DHT22;58633;49.470;11.004;2023-09-18T14:27:06;19.40;99.90
6824;DHT22;58633;49.470;11.004;2023-09-18T14:29:33;19.40;99.90
6824;DHT22;58633;49.470;11.004;2023-09-18T14:31:59;19.30;99.90
6824;DHT22;58633;49.470;11.004;2023-09-18T14:34:25;19.30;99.90
6824;DHT22;58633;49.470;11.004;2023-09-18T14:36:50;19.30;99.90
6824;DHT22;58633;49.470;11.004;2023-09-18T14:39:16;19.40;99.90
6824;DHT22;58633;49.470;11.004;2023-09-18T14:41:42;19.50;99.90
6824;DHT22;58633;49.470;11.004;2023-09-18T14:44:09;19.60;99.90
6824;DHT22;58633;49.470;11.004;2023-09-18T14:46:35;19.60;99.90
6824;DHT22;58633;49.470;11.004;2023-09-18T14:49:03;19.70;99.90
6824;DHT22;58633;49.470;11.004;2023-09-18T14:51:29;19.80;99.90
6824;DHT22;58633;49.470;11.004;2023-09-18T14:53:58;19.80;99.90
6824;DHT22;58633;49.470;11.004;2023-09-18T14:56:24;20.00;99.90
6824;DHT22;58633;49.470;11.004;2023-09-18T14:58:49;20.00;98.90
6824;DHT22;58633;49.470;11.004;2023-09-18T15:01:17;20.00;99.30
6824;DHT22;58633;49.470;11.004;2023-09-18T15:03:43;20.00;99.90
6824;DHT22;58633;49.470;11.004;2023-09-18T15:06:10;20.00;98.80
6824;DHT22;58633;49.470;11.004;2023-09-18T15:08:35;20.10;99.90
6824;DHT22;58633;49.470;11.004;2023-09-18T15:11:01;20.10;99.10
6824;DHT22;58633;49.470;11.004;2023-09-18T15:13:26;20.20;99.90
6824;DHT22;58633;49.470;11.004;2023-09-18T15:15:52;20.30;99.90
6824;DHT22;58633;49.470;11.004;2023-09-18T15:18:17;20.40;98.60
6824;DHT22;58633;49.470;11.004;2023-09-18T15:20:43;20.60;96.00
6824;DHT22;58633;49.470;11.004;2023-09-18T15:23:09;20.60;93.50
6824;DHT22;58633;49.470;11.004;2023-09-18T15:25:35;20.50;93.70
6824;DHT22;58633;49.470;11.004;2023-09-18T15:28:04;20.40;94.30
6824;DHT22;58633;49.470;11.004;2023-09-18T15:30:30;20.60;94.50
6824;DHT22;58633;49.470;11.004;2023-09-18T15:32:56;20.60;94.40
6824;DHT22;58633;49.470;11.004;2023-09-18T15:35:23;20.80;92.80
6824;DHT22;58633;49.470;11.004;2023-09-18T15:37:49;20.80;91.30
6824;DHT22;58633;49.470;11.004;2023-09-18T15:40:15;20.80;91.80
6824;DHT22;58633;49.470;11.004;2023-09-18T15:42:43;20.70;93.20